Time;durP1;ratioP1;P1;durP2;ratioP2;P2;SDS_P1;SDS_P2;PMS_P1;PMS_P2;Temp;Humidity;BMP_temperature;BMP_pressure;BME280_temperature;BME280_humidity;BME280_pressure;Samples;Min_cycle;Max_cycle;Signal;HPM_P1;HPM_P2
2020/12/14 00:01:11;;;;;;;9.63;7.10;;;10.00;87.60;;;;;;5009600;28;20655;-53
2020/12/14 00:03:38;;;;;;;7.33;4.87;;;10.00;87.60;;;;;;5009765;28;20713;-54
2020/12/14 00:06:05;;;;;;;8.30;6.30;;;10.00;87.40;;;;;;5008505;28;20627;-55
2020/12/14 00:08:31;;;;;;;7.83;5.60;;;10.00;87.60;;;;;;5006659;28;20714;-52
2020/12/14 00:10:59;;;;;;;7.47;5.30;;;9.90;89.00;;;;;;5008805;28;20639;-53
2020/12/14 00:13:26;;;;;;;8.53;5.53;;;10.00;87.60;;;;;;5009812;28;21035;-55
2020/12/14 00:15:52;;;;;;;6.97;4.43;;;10.00;87.60;;;;;;5008138;28;20635;-55
2020/12/14 00:18:19;;;;;;;5.90;4.80;;;9.90;89.00;;;;;;4990431;28;20659;-53
2020/12/14 00:20:46;;;;;;;12.37;5.57;;;9.90;89.10;;;;;;5004627;28;20628;-53
2020/12/14 00:23:13;;;;;;;5.17;4.60;;;9.90;89.10;;;;;;5009487;28;21246;-54
2020/12/14 00:25:40;;;;;;;5.60;4.80;;;10.00;87.90;;;;;;5009841;28;20682;-54
2020/12/14 00:28:08;;;;;;;7.60;5.27;;;10.00;87.70;;;;;;5006825;28;20706;-53
2020/12/14 00:30:34;;;;;;;8.57;5.10;;;10.00;87.60;;;;;;5004700;28;20624;-53
2020/12/14 00:33:08;;;;;;;6.40;4.90;;;10.00;87.40;;;;;;5008226;28;20651;-53
2020/12/14 00:35:36;;;;;;;6.80;4.67;;;9.90;88.80;;;;;;5009764;28;20635;-53
2020/12/14 00:38:06;;;;;;;7.90;4.80;;;9.90;88.80;;;;;;5006072;28;21259;-54
2020/12/14 00:40:33;;;;;;;8.10;5.07;;;9.90;89.00;;;;;;4994874;28;20656;-53
2020/12/14 00:43:00;;;;;;;5.63;5.03;;;9.90;88.90;;;;;;5000675;28;21176;-54
2020/12/14 00:45:27;;;;;;;8.43;4.17;;;9.90;88.70;;;;;;5010399;28;21265;-51
2020/12/14 00:47:54;;;;;;;5.53;4.30;;;9.90;88.80;;;;;;5009213;28;21254;-53
2020/12/14 00:50:21;;;;;;;7.50;4.97;;;9.90;88.80;;;;;;4994260;28;21208;-53
2020/12/14 00:52:48;;;;;;;5.10;4.60;;;9.90;88.50;;;;;;4995926;28;20680;-53
2020/12/14 00:55:16;;;;;;;6.10;4.10;;;10.00;86.90;;;;;;5010012;28;20755;-52
2020/12/14 00:57:44;;;;;;;4.70;4.00;;;10.10;87.00;;;;;;5005441;28;20658;-53
2020/12/14 01:00:11;;;;;;;11.90;5.10;;;10.00;86.50;;;;;;5010458;28;20715;-52
2020/12/14 01:02:38;;;;;;;4.10;3.70;;;10.20;85.80;;;;;;5005168;28;21252;-52
2020/12/14 01:05:05;;;;;;;7.90;4.27;;;10.20;84.90;;;;;;5009574;28;20652;-52
2020/12/14 01:07:32;;;;;;;4.37;3.90;;;10.20;84.40;;;;;;5009535;28;21094;-53
2020/12/14 01:09:58;;;;;;;4.07;3.70;;;10.20;84.10;;;;;;5007541;28;20732;-53
2020/12/14 01:12:25;;;;;;;4.50;3.20;;;10.20;83.80;;;;;;5009879;28;21096;-52
2020/12/14 01:14:52;;;;;;;6.40;3.43;;;10.10;83.60;;;;;;5009273;28;20648;-52
2020/12/14 01:17:19;;;;;;;4.37;3.77;;;10.10;83.60;;;;;;5010165;28;20628;-53
2020/12/14 01:19:46;;;;;;;3.77;2.63;;;10.10;83.70;;;;;;5012785;28;20656;-52
2020/12/14 01:22:13;;;;;;;8.03;4.50;;;10.00;83.50;;;;;;5013898;28;20659;-53
2020/12/14 01:24:40;;;;;;;4.77;4.27;;;10.00;83.70;;;;;;5013423;28;20666;-53
2020/12/14 01:27:07;;;;;;;5.17;3.50;;;10.00;83.80;;;;;;5013496;28;21183;-53
2020/12/14 01:29:33;;;;;;;3.50;3.20;;;10.00;83.80;;;;;;5013603;28;20725;-53
2020/12/14 01:32:00;;;;;;;4.47;3.33;;;10.00;83.60;;;;;;5011596;28;20714;-52
2020/12/14 01:34:27;;;;;;;7.23;3.67;;;10.10;83.50;;;;;;5013316;28;20647;-52
2020/12/14 01:36:54;;;;;;;5.87;3.00;;;10.10;83.60;;;;;;5013141;28;20627;-53
2020/12/14 01:39:21;;;;;;;3.93;2.40;;;10.10;82.50;;;;;;5013373;28;20725;-53
2020/12/14 01:41:48;;;;;;;3.17;2.27;;;10.10;81.80;;;;;;5007394;28;20667;-52
2020/12/14 01:44:15;;;;;;;7.00;3.27;;;10.20;81.40;;;;;;5012817;28;20632;-53
2020/12/14 01:46:43;;;;;;;5.07;2.53;;;10.20;80.60;;;;;;5013580;28;20632;-53
2020/12/14 01:49:10;;;;;;;2.40;2.10;;;10.30;80.40;;;;;;5012805;28;20980;-53
2020/12/14 01:51:37;;;;;;;2.60;2.40;;;10.30;80.60;;;;;;5013084;28;20679;-52
2020/12/14 01:54:06;;;;;;;6.33;2.40;;;10.30;79.80;;;;;;5012659;28;21046;-52
2020/12/14 01:56:32;;;;;;;2.50;2.10;;;10.40;79.50;;;;;;5013125;28;20677;-52
2020/12/14 01:58:59;;;;;;;3.10;2.30;;;10.40;79.00;;;;;;5012418;28;21389;-52
2020/12/14 02:01:26;;;;;;;4.33;2.83;;;10.40;78.80;;;;;;5012698;28;20663;-53
2020/12/14 02:03:53;;;;;;;3.83;2.40;;;10.50;79.30;;;;;;5012485;28;20651;-52
2020/12/14 02:06:19;;;;;;;4.53;2.60;;;10.50;79.30;;;;;;5012711;28;20658;-53
2020/12/14 02:08:46;;;;;;;2.93;2.43;;;10.50;78.80;;;;;;5011987;28;20694;-52
2020/12/14 02:11:14;;;;;;;6.43;2.27;;;10.60;78.70;;;;;;5013150;28;20624;-55
2020/12/14 02:13:41;;;;;;;6.10;3.57;;;10.60;78.60;;;;;;5010347;28;20698;-53
2020/12/14 02:16:07;;;;;;;3.60;2.70;;;10.50;78.50;;;;;;5013096;28;21040;-52
2020/12/14 02:18:34;;;;;;;3.07;2.70;;;10.40;78.90;;;;;;5012092;28;20694;-54
2020/12/14 02:21:01;;;;;;;1.83;1.73;;;10.50;79.10;;;;;;5011989;28;21176;-55
2020/12/14 02:23:28;;;;;;;3.80;2.70;;;10.40;78.50;;;;;;5012676;28;20628;-55
2020/12/14 02:25:55;;;;;;;2.00;1.67;;;10.40;77.80;;;;;;5012135;28;20628;-53
2020/12/14 02:28:22;;;;;;;1.60;1.50;;;10.50;77.20;;;;;;5011600;28;20713;-51
2020/12/14 02:30:49;;;;;;;3.87;1.53;;;10.50;76.90;;;;;;5012406;28;21071;-54
2020/12/14 02:33:15;;;;;;;4.17;2.27;;;10.60;76.80;;;;;;5012263;28;21063;-52
2020/12/14 02:35:45;;;;;;;4.33;1.90;;;10.60;76.50;;;;;;5011947;28;21269;-52
2020/12/14 02:38:12;;;;;;;2.70;1.77;;;10.60;76.50;;;;;;5012172;28;20656;-53
2020/12/14 02:40:39;;;;;;;1.97;1.40;;;10.60;76.30;;;;;;5011855;28;21044;-53
2020/12/14 02:43:06;;;;;;;4.10;2.50;;;10.70;76.20;;;;;;5011902;28;20636;-52
2020/12/14 02:45:33;;;;;;;3.27;2.20;;;10.70;76.60;;;;;;5011459;28;20764;-53
2020/12/14 02:48:00;;;;;;;5.43;2.10;;;10.70;75.70;;;;;;5011005;28;20680;-53
2020/12/14 02:50:29;;;;;;;2.10;1.90;;;10.80;75.60;;;;;;5010170;28;21244;-53
2020/12/14 02:52:56;;;;;;;3.90;1.67;;;10.80;75.60;;;;;;5011544;28;21286;-50
2020/12/14 02:55:23;;;;;;;3.10;2.10;;;10.80;75.60;;;;;;5011010;28;20971;-51
2020/12/14 02:57:49;;;;;;;3.50;1.70;;;10.80;75.60;;;;;;5011654;28;20963;-53
2020/12/14 03:00:17;;;;;;;3.50;1.90;;;10.80;75.30;;;;;;5011780;28;21234;-52
2020/12/14 03:02:44;;;;;;;2.83;1.60;;;10.80;75.00;;;;;;5011599;28;20698;-53
2020/12/14 03:05:10;;;;;;;3.83;2.67;;;10.80;74.70;;;;;;5011539;28;20659;-52
2020/12/14 03:07:37;;;;;;;2.37;1.80;;;10.80;74.80;;;;;;5010963;28;20707;-52
2020/12/14 03:10:05;;;;;;;3.67;2.50;;;10.80;74.90;;;;;;5011495;28;20651;-53
2020/12/14 03:12:32;;;;;;;2.40;1.70;;;10.80;74.70;;;;;;5011540;28;20702;-53
2020/12/14 03:14:59;;;;;;;3.33;2.40;;;10.80;74.50;;;;;;5010745;28;20675;-54
2020/12/14 03:17:27;;;;;;;4.43;1.87;;;10.80;74.30;;;;;;5009672;28;20628;-54
2020/12/14 03:19:53;;;;;;;4.03;2.10;;;10.80;74.30;;;;;;5011121;28;20710;-53
2020/12/14 03:22:20;;;;;;;4.13;1.87;;;10.80;74.50;;;;;;5011538;28;20647;-54
2020/12/14 03:24:47;;;;;;;2.70;2.00;;;10.80;74.70;;;;;;5011166;28;20627;-53
2020/12/14 03:27:14;;;;;;;2.10;1.90;;;10.80;74.40;;;;;;5010813;28;20701;-54
2020/12/14 03:29:41;;;;;;;3.40;2.43;;;10.80;74.70;;;;;;5011170;28;20656;-54
2020/12/14 03:32:07;;;;;;;2.53;1.93;;;10.80;74.70;;;;;;5011214;28;20659;-52
2020/12/14 03:34:35;;;;;;;4.60;2.50;;;10.70;75.20;;;;;;5010592;28;20675;-52
2020/12/14 03:37:02;;;;;;;2.67;1.73;;;10.70;76.40;;;;;;5010596;28;20631;-52
2020/12/14 03:39:28;;;;;;;3.40;2.47;;;10.70;76.70;;;;;;5010703;28;21020;-52
2020/12/14 03:41:55;;;;;;;4.80;2.40;;;10.70;77.20;;;;;;5009593;28;21098;-52
2020/12/14 03:44:22;;;;;;;4.73;2.57;;;10.70;77.10;;;;;;5006659;28;21220;-53
2020/12/14 03:46:50;;;;;;;5.33;2.57;;;10.60;76.90;;;;;;5010563;28;20686;-53
2020/12/14 03:49:17;;;;;;;7.70;2.63;;;10.60;77.30;;;;;;5009469;28;20726;-52
2020/12/14 03:51:45;;;;;;;2.40;2.20;;;10.60;77.60;;;;;;5010458;28;20624;-52
2020/12/14 03:54:11;;;;;;;3.30;2.80;;;10.50;77.60;;;;;;5010675;28;20664;-52
2020/12/14 03:56:38;;;;;;;3.00;2.70;;;10.50;78.10;;;;;;5010746;28;21065;-52
2020/12/14 03:59:05;;;;;;;5.63;2.50;;;10.40;77.40;;;;;;5009918;28;21018;-52
2020/12/14 04:01:32;;;;;;;6.30;2.97;;;10.40;77.90;;;;;;5010031;28;20663;-53
2020/12/14 04:03:58;;;;;;;3.00;2.73;;;10.40;78.20;;;;;;5010739;28;20656;-54
2020/12/14 04:06:26;;;;;;;2.83;2.60;;;10.30;78.40;;;;;;5010142;28;20643;-53
2020/12/14 04:08:54;;;;;;;3.73;3.20;;;10.30;78.70;;;;;;5010461;28;21088;-54
2020/12/14 04:11:21;;;;;;;7.63;4.07;;;10.20;78.80;;;;;;5010547;28;20644;-53
2020/12/14 04:13:48;;;;;;;3.20;2.90;;;10.20;79.40;;;;;;5010110;28;20702;-54
2020/12/14 04:16:14;;;;;;;3.50;3.20;;;10.10;79.80;;;;;;5010207;28;21020;-54
2020/12/14 04:18:41;;;;;;;3.70;3.20;;;10.10;79.80;;;;;;5009740;28;20718;-54
2020/12/14 04:21:09;;;;;;;6.27;3.37;;;10.00;80.00;;;;;;5010050;28;20687;-55
2020/12/14 04:23:36;;;;;;;6.63;4.70;;;10.00;80.30;;;;;;5005155;28;20625;-55
2020/12/14 04:26:03;;;;;;;4.97;3.33;;;10.00;80.50;;;;;;5010195;28;20699;-55
2020/12/14 04:28:30;;;;;;;4.40;3.50;;;9.90;81.80;;;;;;5010348;28;20741;-56
2020/12/14 04:30:57;;;;;;;4.63;3.67;;;9.80;82.00;;;;;;5010705;28;20634;-53
2020/12/14 04:33:24;;;;;;;8.50;4.90;;;9.70;83.10;;;;;;5009257;28;20683;-54
2020/12/14 04:35:51;;;;;;;9.40;3.40;;;9.70;83.20;;;;;;5010146;28;20732;-53
2020/12/14 04:38:18;;;;;;;3.90;3.50;;;9.60;83.60;;;;;;5008690;28;20687;-54
2020/12/14 04:40:45;;;;;;;3.73;3.43;;;9.60;84.10;;;;;;5008801;28;20640;-53
2020/12/14 04:43:14;;;;;;;5.20;4.30;;;9.60;84.40;;;;;;5008074;28;20664;-52
2020/12/14 04:45:40;;;;;;;6.17;3.27;;;9.70;84.50;;;;;;5009416;28;20631;-53
2020/12/14 04:48:07;;;;;;;3.80;3.37;;;9.70;84.30;;;;;;5009282;28;20699;-53
2020/12/14 04:50:34;;;;;;;4.70;4.30;;;9.70;84.20;;;;;;5010065;28;21054;-53
2020/12/14 04:53:03;;;;;;;3.33;3.10;;;9.70;84.30;;;;;;5011827;28;20695;-53
2020/12/14 04:55:29;;;;;;;4.80;3.43;;;9.70;84.40;;;;;;5012123;28;20667;-53
2020/12/14 04:57:56;;;;;;;3.90;3.00;;;9.70;84.20;;;;;;5032346;28;20694;-53
2020/12/14 05:00:24;;;;;;;6.27;3.80;;;9.60;84.10;;;;;;5030477;28;20628;-52
2020/12/14 05:02:55;;;;;;;6.60;4.37;;;9.60;84.70;;;;;;5017880;28;20662;-53
2020/12/14 05:05:22;;;;;;;3.70;3.27;;;9.60;85.70;;;;;;5013913;28;20666;-53
2020/12/14 05:07:48;;;;;;;4.23;3.83;;;9.60;84.70;;;;;;5013946;28;20658;-52
2020/12/14 05:10:15;;;;;;;4.00;3.70;;;9.60;84.40;;;;;;5013463;28;20632;-52
2020/12/14 05:12:43;;;;;;;4.73;3.53;;;9.70;84.40;;;;;;5016564;28;21164;-52
2020/12/14 05:15:31;;;;;;;5.30;3.43;;;9.70;84.30;;;;;;5017755;28;20997;-53
2020/12/14 05:18:09;;;;;;;3.93;3.63;;;9.60;84.20;;;;;;5012609;28;20647;-53
2020/12/14 05:20:36;;;;;;;4.47;4.03;;;9.50;84.40;;;;;;5013820;28;20690;-53
2020/12/14 05:23:03;;;;;;;5.13;4.63;;;9.50;84.70;;;;;;5013683;28;20651;-55
2020/12/14 05:25:30;;;;;;;4.40;4.00;;;9.50;84.70;;;;;;5012962;28;20627;-52
2020/12/14 05:28:02;;;;;;;4.60;4.20;;;9.40;84.50;;;;;;5013046;28;20663;-52
2020/12/14 05:30:39;;;;;;;4.17;3.77;;;9.30;85.00;;;;;;5012724;28;20627;-53
2020/12/14 05:33:07;;;;;;;4.30;3.37;;;9.30;85.30;;;;;;5012503;28;20670;-56
2020/12/14 05:35:35;;;;;;;6.03;4.20;;;9.30;85.60;;;;;;5012479;28;20843;-55
2020/12/14 05:38:13;;;;;;;4.93;4.57;;;9.30;86.00;;;;;;5011301;28;20675;-55
2020/12/14 05:40:39;;;;;;;4.87;4.30;;;9.30;86.00;;;;;;5011252;28;20682;-55
2020/12/14 05:43:13;;;;;;;6.20;4.80;;;9.30;86.00;;;;;;5008244;28;20660;-53
2020/12/14 05:45:40;;;;;;;8.30;3.70;;;9.40;86.20;;;;;;5016507;28;20685;-56
2020/12/14 05:48:22;;;;;;;5.57;3.97;;;9.40;85.70;;;;;;5019242;28;20670;-53
2020/12/14 05:50:50;;;;;;;3.83;3.40;;;9.40;85.80;;;;;;5011392;28;20662;-54
2020/12/14 05:53:20;;;;;;;5.07;3.80;;;9.40;85.90;;;;;;5016024;28;21242;-53
2020/12/14 05:55:47;;;;;;;4.47;3.43;;;9.40;86.00;;;;;;5009772;28;20655;-53
2020/12/14 05:58:15;;;;;;;4.53;3.73;;;9.50;86.30;;;;;;5012526;28;20727;-52
2020/12/14 06:00:43;;;;;;;9.07;4.53;;;9.50;86.50;;;;;;5010848;28;21226;-53
2020/12/14 06:03:10;;;;;;;4.90;3.70;;;9.50;86.70;;;;;;5010022;28;20624;-54
2020/12/14 06:05:37;;;;;;;6.63;3.33;;;9.60;86.20;;;;;;5012183;28;21155;-54
2020/12/14 06:08:15;;;;;;;3.83;3.43;;;9.70;86.80;;;;;;5029902;28;20650;-53
2020/12/14 06:10:42;;;;;;;6.43;3.80;;;9.70;85.80;;;;;;5015716;28;20631;-55
2020/12/14 06:13:10;;;;;;;4.00;3.00;;;9.80;85.50;;;;;;5000488;28;21056;-54
2020/12/14 06:15:37;;;;;;;4.20;3.80;;;9.70;85.00;;;;;;5011769;28;20690;-53
2020/12/14 06:18:04;;;;;;;6.57;3.50;;;9.80;84.80;;;;;;5011159;28;20659;-53
2020/12/14 06:20:31;;;;;;;5.40;3.33;;;9.90;84.80;;;;;;5012004;28;20623;-53
2020/12/14 06:23:03;;;;;;;4.57;3.97;;;9.90;84.60;;;;;;5010332;28;21301;-52
2020/12/14 06:25:30;;;;;;;3.93;3.50;;;10.00;83.10;;;;;;5011986;28;20672;-54
2020/12/14 06:27:57;;;;;;;3.50;3.23;;;10.00;82.70;;;;;;5010862;28;20690;-53
2020/12/14 06:30:31;;;;;;;3.70;3.40;;;10.00;82.80;;;;;;5010634;28;20703;-53
2020/12/14 06:32:59;;;;;;;4.97;4.40;;;10.10;82.80;;;;;;5010687;28;20688;-54
2020/12/14 06:35:53;;;;;;;3.87;3.27;;;10.10;82.40;;;;;;5009389;28;20644;-54
2020/12/14 06:38:35;;;;;;;5.40;3.30;;;10.10;82.20;;;;;;5000343;28;20695;-54
2020/12/14 06:41:05;;;;;;;3.53;3.20;;;10.10;81.90;;;;;;5012136;28;20632;-54
2020/12/14 06:43:32;;;;;;;3.30;2.83;;;10.20;81.70;;;;;;5011129;28;20631;-52
2020/12/14 06:46:01;;;;;;;3.63;3.33;;;10.20;81.80;;;;;;5005317;28;20647;-53
2020/12/14 06:48:42;;;;;;;5.80;4.67;;;10.20;81.70;;;;;;4999109;28;20667;-54
2020/12/14 06:51:16;;;;;;;5.23;4.40;;;10.20;81.10;;;;;;4999556;28;21227;-52
2020/12/14 06:53:44;;;;;;;5.10;4.40;;;10.20;81.30;;;;;;4999481;28;20723;-54
2020/12/14 06:56:13;;;;;;;4.73;4.20;;;10.30;81.40;;;;;;5000837;28;21211;-53
2020/12/14 06:58:41;;;;;;;4.73;4.37;;;10.30;81.40;;;;;;5000609;28;20656;-53
2020/12/14 07:01:37;;;;;;;4.17;3.70;;;10.30;80.90;;;;;;4999758;28;21236;-54
2020/12/14 07:04:28;;;;;;;4.20;3.80;;;10.30;80.40;;;;;;5000540;28;20658;-52
2020/12/14 07:06:54;;;;;;;4.27;3.93;;;10.30;80.70;;;;;;4998361;28;20656;-55
2020/12/14 07:09:27;;;;;;;4.43;4.03;;;10.30;80.80;;;;;;4991442;28;20735;-55
2020/12/14 07:11:55;;;;;;;5.23;4.07;;;10.30;80.80;;;;;;4991170;28;20688;-54
2020/12/14 07:14:29;;;;;;;4.20;3.80;;;10.30;80.80;;;;;;5001945;28;20698;-54
2020/12/14 07:16:56;;;;;;;4.57;3.23;;;10.20;81.00;;;;;;4990838;28;20687;-54
2020/12/14 07:19:32;;;;;;;6.40;3.83;;;10.20;81.20;;;;;;4991678;28;20649;-53
2020/12/14 07:21:59;;;;;;;6.17;4.00;;;10.30;81.30;;;;;;4994156;28;20667;-52
2020/12/14 07:24:33;;;;;;;6.63;4.00;;;10.30;81.00;;;;;;5010821;28;21265;-53
2020/12/14 07:27:01;;;;;;;6.40;4.17;;;10.30;81.10;;;;;;5011083;28;20632;-53
2020/12/14 07:29:27;;;;;;;5.47;4.03;;;10.30;81.00;;;;;;5011443;28;20660;-55
2020/12/14 07:31:54;;;;;;;3.83;3.47;;;10.30;80.70;;;;;;5010715;28;20730;-54
2020/12/14 07:34:21;;;;;;;6.00;4.70;;;10.30;80.60;;;;;;5010423;28;20758;-55
2020/12/14 07:36:48;;;;;;;4.63;3.77;;;10.30;80.80;;;;;;5010753;28;20663;-54
2020/12/14 07:39:15;;;;;;;4.17;3.87;;;10.30;80.90;;;;;;5010890;28;21077;-54
2020/12/14 07:41:45;;;;;;;3.53;3.30;;;10.40;81.00;;;;;;5011240;28;20660;-55
2020/12/14 07:44:15;;;;;;;4.30;3.90;;;10.40;80.90;;;;;;5010308;28;21034;-55
2020/12/14 07:46:43;;;;;;;4.27;3.43;;;10.30;80.90;;;;;;5010556;28;20632;-53
2020/12/14 07:49:10;;;;;;;4.23;3.70;;;10.30;81.30;;;;;;5010130;28;20698;-53
2020/12/14 07:51:37;;;;;;;5.00;4.10;;;10.30;81.60;;;;;;5010410;28;20667;-53
2020/12/14 07:54:09;;;;;;;4.80;3.40;;;10.40;81.50;;;;;;5010328;28;21183;-54
2020/12/14 07:56:48;;;;;;;5.33;3.50;;;10.40;81.30;;;;;;5011014;28;20623;-53
2020/12/14 07:59:21;;;;;;;5.20;3.10;;;10.50;81.20;;;;;;5010353;28;20678;-54
2020/12/14 08:01:48;;;;;;;3.80;3.50;;;10.50;80.30;;;;;;5010696;28;20663;-54
2020/12/14 08:04:25;;;;;;;4.30;4.00;;;10.40;80.10;;;;;;5010407;28;20682;-53
2020/12/14 08:06:52;;;;;;;9.43;3.37;;;10.40;80.30;;;;;;5010905;28;20672;-53
2020/12/14 08:09:20;;;;;;;6.40;3.83;;;10.40;80.20;;;;;;5010258;28;20684;-54
2020/12/14 08:11:47;;;;;;;4.57;4.00;;;10.50;80.50;;;;;;5009995;28;20676;-52
2020/12/14 08:14:15;;;;;;;8.23;4.00;;;10.50;80.10;;;;;;5009980;28;20710;-55
2020/12/14 08:16:44;;;;;;;3.80;3.40;;;10.50;79.70;;;;;;5009359;28;20670;-53
2020/12/14 08:19:18;;;;;;;3.80;3.03;;;10.60;79.50;;;;;;5010625;28;20651;-53
2020/12/14 08:22:00;;;;;;;3.87;3.57;;;10.60;79.50;;;;;;5011174;28;21039;-56
2020/12/14 08:24:27;;;;;;;4.70;3.40;;;10.60;79.00;;;;;;5009206;28;20690;-55
2020/12/14 08:26:59;;;;;;;4.00;3.50;;;10.60;79.10;;;;;;5010374;28;20634;-54
2020/12/14 08:29:31;;;;;;;6.07;3.83;;;10.70;79.30;;;;;;5010947;28;20663;-55
2020/12/14 08:32:01;;;;;;;5.40;3.63;;;10.70;79.30;;;;;;5010066;28;20656;-53
2020/12/14 08:34:33;;;;;;;18.17;4.50;;;10.70;80.10;;;;;;5011545;28;21073;-53
2020/12/14 08:37:00;;;;;;;4.70;3.90;;;10.70;80.20;;;;;;5009903;28;20631;-50
2020/12/14 08:39:27;;;;;;;3.90;3.53;;;10.70;80.40;;;;;;5009089;28;20659;-51
2020/12/14 08:42:08;;;;;;;7.10;3.23;;;10.70;80.40;;;;;;5007047;28;20988;-51
2020/12/14 08:44:35;;;;;;;6.20;4.27;;;10.70;80.60;;;;;;5008962;28;20631;-52
2020/12/14 08:47:10;;;;;;;4.20;3.80;;;10.70;81.20;;;;;;5023845;28;20651;-51
2020/12/14 08:49:36;;;;;;;5.23;3.60;;;10.70;81.50;;;;;;5021995;28;20701;-53
2020/12/14 08:52:03;;;;;;;3.63;3.23;;;10.80;81.50;;;;;;5008727;28;20667;-52
2020/12/14 08:54:30;;;;;;;3.20;2.93;;;10.80;81.60;;;;;;5008974;28;21321;-51
2020/12/14 08:56:57;;;;;;;4.30;3.90;;;10.90;81.90;;;;;;5009253;28;20624;-52
2020/12/14 08:59:26;;;;;;;3.77;3.30;;;10.90;81.80;;;;;;5009559;28;20667;-51
2020/12/14 09:01:56;;;;;;;5.13;3.53;;;11.00;81.70;;;;;;5009345;28;20656;-50
2020/12/14 09:04:28;;;;;;;4.47;3.63;;;11.00;81.30;;;;;;5009168;28;20682;-51
2020/12/14 09:06:55;;;;;;;8.20;3.37;;;11.10;80.70;;;;;;5007494;28;20632;-50
2020/12/14 09:09:29;;;;;;;5.00;4.23;;;11.10;80.20;;;;;;5008541;28;20664;-52
2020/12/14 09:11:56;;;;;;;3.63;3.33;;;11.20;79.80;;;;;;5025002;28;20638;-51
2020/12/14 09:14:23;;;;;;;4.80;3.20;;;11.30;79.60;;;;;;5020994;28;20713;-52
2020/12/14 09:16:58;;;;;;;7.60;4.10;;;11.30;79.30;;;;;;5009581;28;20958;-50
2020/12/14 09:19:27;;;;;;;6.30;4.00;;;11.40;79.60;;;;;;5010233;28;20658;-51
2020/12/14 09:21:54;;;;;;;4.00;3.50;;;11.40;79.20;;;;;;5021841;28;20647;-51
2020/12/14 09:24:22;;;;;;;4.87;3.23;;;11.50;78.90;;;;;;5005408;28;20674;-50
2020/12/14 09:26:50;;;;;;;3.10;2.83;;;11.50;78.10;;;;;;5022841;28;20670;-51
2020/12/14 09:29:16;;;;;;;4.03;3.07;;;11.50;77.50;;;;;;5028285;28;20728;-52
2020/12/14 09:31:50;;;;;;;4.00;3.57;;;11.50;77.30;;;;;;5015779;28;20628;-51
2020/12/14 09:34:17;;;;;;;4.03;3.63;;;11.60;77.10;;;;;;5008276;28;20691;-51
2020/12/14 09:36:45;;;;;;;5.10;3.83;;;11.60;76.70;;;;;;5021567;28;20654;-51
2020/12/14 09:39:12;;;;;;;10.87;4.60;;;11.60;76.10;;;;;;5030445;28;20682;-51
2020/12/14 09:41:38;;;;;;;6.57;4.80;;;11.60;76.60;;;;;;5032674;28;21257;-51
2020/12/14 09:44:05;;;;;;;6.10;4.27;;;11.70;76.80;;;;;;5025346;28;20707;-51
2020/12/14 09:46:32;;;;;;;8.17;5.20;;;11.60;76.00;;;;;;5023701;28;20651;-50
2020/12/14 09:48:59;;;;;;;4.67;4.27;;;11.60;76.00;;;;;;5032049;28;21090;-50
2020/12/14 09:51:26;;;;;;;4.83;3.50;;;11.70;74.60;;;;;;5031421;28;20673;-50
2020/12/14 09:53:54;;;;;;;3.57;3.27;;;11.70;73.20;;;;;;5017493;28;20652;-51
2020/12/14 09:56:21;;;;;;;4.63;3.50;;;11.70;72.90;;;;;;5019673;28;21187;-49
2020/12/14 09:58:48;;;;;;;4.53;4.13;;;11.70;72.50;;;;;;5011808;28;20660;-49
2020/12/14 10:01:15;;;;;;;4.73;4.00;;;11.70;72.00;;;;;;5022050;28;20729;-51
2020/12/14 10:03:41;;;;;;;7.80;4.10;;;11.70;72.80;;;;;;5015922;28;20666;-53
2020/12/14 10:06:10;;;;;;;3.90;3.40;;;11.80;73.10;;;;;;5013148;28;21045;-54
2020/12/14 10:08:37;;;;;;;5.37;3.90;;;11.80;72.90;;;;;;5013138;28;20678;-53
2020/12/14 10:11:05;;;;;;;4.47;3.50;;;11.90;72.40;;;;;;5013853;28;20666;-52
2020/12/14 10:13:35;;;;;;;4.00;3.60;;;11.90;72.10;;;;;;5014583;28;20619;-54
2020/12/14 10:16:02;;;;;;;4.17;3.77;;;12.00;71.80;;;;;;5015190;28;20619;-53
2020/12/14 10:18:29;;;;;;;3.80;3.50;;;12.00;71.60;;;;;;5014897;28;20661;-53
2020/12/14 10:20:56;;;;;;;4.57;4.13;;;11.90;71.50;;;;;;5014347;28;20628;-52
2020/12/14 10:23:23;;;;;;;3.70;3.40;;;11.90;71.80;;;;;;5013238;28;20624;-53
2020/12/14 10:25:50;;;;;;;5.13;3.70;;;11.90;71.80;;;;;;5013611;28;20654;-53
2020/12/14 10:28:21;;;;;;;3.70;3.40;;;11.90;71.60;;;;;;5013593;28;20683;-55
2020/12/14 10:30:51;;;;;;;5.40;5.00;;;11.90;72.30;;;;;;5013476;28;20620;-52
2020/12/14 10:33:18;;;;;;;4.93;4.40;;;12.00;72.80;;;;;;5011704;28;20631;-51
2020/12/14 10:35:45;;;;;;;4.87;4.43;;;12.00;72.20;;;;;;5013037;28;21093;-53
2020/12/14 10:38:12;;;;;;;5.63;4.60;;;12.00;71.70;;;;;;5012753;28;20659;-53
2020/12/14 10:40:39;;;;;;;4.13;3.83;;;12.00;71.80;;;;;;5013463;28;20624;-52
2020/12/14 10:43:06;;;;;;;6.37;4.13;;;12.10;72.00;;;;;;5012833;28;20667;-50
2020/12/14 10:45:36;;;;;;;4.73;4.33;;;12.10;72.00;;;;;;5013352;28;20663;-51
2020/12/14 10:48:03;;;;;;;6.53;3.87;;;12.10;72.80;;;;;;5011576;28;21325;-52
2020/12/14 10:50:31;;;;;;;6.90;6.10;;;12.10;71.90;;;;;;5013378;28;20636;-52
2020/12/14 10:52:57;;;;;;;4.70;4.23;;;12.20;73.00;;;;;;5012997;28;20619;-53
2020/12/14 10:55:25;;;;;;;5.23;4.77;;;12.20;71.80;;;;;;5013371;28;21123;-52
2020/12/14 10:57:51;;;;;;;4.80;4.20;;;12.30;72.00;;;;;;5013225;28;20651;-52
2020/12/14 11:00:21;;;;;;;4.97;4.53;;;12.50;72.30;;;;;;5012963;28;20651;-54
2020/12/14 11:02:49;;;;;;;5.50;5.00;;;12.70;71.50;;;;;;5013532;28;20620;-53
2020/12/14 11:05:16;;;;;;;5.13;4.53;;;12.70;70.90;;;;;;5011244;28;21148;-52
2020/12/14 11:07:43;;;;;;;4.10;3.80;;;12.80;70.80;;;;;;5012810;28;20999;-54
2020/12/14 11:10:10;;;;;;;6.87;4.60;;;12.90;70.10;;;;;;5013144;28;20635;-54
2020/12/14 11:12:37;;;;;;;6.50;5.90;;;13.10;70.40;;;;;;5012609;28;21160;-53
2020/12/14 11:15:07;;;;;;;8.43;4.30;;;13.10;68.90;;;;;;5012441;28;20660;-54
2020/12/14 11:17:35;;;;;;;4.03;3.63;;;13.10;68.90;;;;;;5012494;28;20659;-53
2020/12/14 11:20:03;;;;;;;5.13;4.73;;;13.30;68.60;;;;;;5012842;28;20636;-52
2020/12/14 11:22:30;;;;;;;5.73;4.10;;;13.50;69.00;;;;;;5012621;28;20690;-54
2020/12/14 11:24:57;;;;;;;5.70;4.50;;;13.50;67.60;;;;;;4996794;28;21180;-54
2020/12/14 11:27:23;;;;;;;4.90;4.50;;;13.50;66.80;;;;;;4993892;28;20624;-54
2020/12/14 11:29:50;;;;;;;4.97;4.40;;;13.50;66.80;;;;;;4994621;28;20715;-55
2020/12/14 11:32:17;;;;;;;5.03;4.63;;;13.50;66.20;;;;;;4994399;28;20636;-52
2020/12/14 11:34:44;;;;;;;5.23;4.77;;;13.50;66.00;;;;;;4993983;28;21062;-53
2020/12/14 11:37:12;;;;;;;4.87;4.37;;;13.50;66.00;;;;;;5008350;28;20645;-52
2020/12/14 11:39:39;;;;;;;4.57;4.13;;;13.50;65.20;;;;;;4993910;28;20684;-52
2020/12/14 11:42:08;;;;;;;4.63;4.23;;;13.50;65.20;;;;;;4993091;28;20667;-54
2020/12/14 11:44:35;;;;;;;5.90;5.00;;;13.40;65.50;;;;;;4993030;28;20621;-52
2020/12/14 11:47:03;;;;;;;6.87;5.00;;;13.30;64.80;;;;;;4993416;28;20660;-54
2020/12/14 11:49:29;;;;;;;5.27;4.77;;;13.10;65.30;;;;;;4992779;28;20719;-52
2020/12/14 11:51:56;;;;;;;5.83;4.70;;;13.00;65.80;;;;;;4992738;28;20756;-52
2020/12/14 11:54:24;;;;;;;5.90;5.30;;;13.00;66.30;;;;;;5010376;28;20698;-52
2020/12/14 11:56:54;;;;;;;5.60;5.10;;;13.00;66.50;;;;;;5013124;28;20642;-54
2020/12/14 11:59:21;;;;;;;6.20;5.60;;;12.90;66.90;;;;;;5012184;28;20662;-51
2020/12/14 12:01:48;;;;;;;4.73;4.33;;;13.00;67.40;;;;;;5010725;28;20635;-54
2020/12/14 12:04:15;;;;;;;8.73;4.70;;;13.00;66.90;;;;;;5012644;28;20991;-52
2020/12/14 12:06:42;;;;;;;4.57;4.13;;;13.00;66.90;;;;;;5011321;28;20675;-54
2020/12/14 12:09:08;;;;;;;5.20;4.70;;;13.00;66.80;;;;;;5009630;28;20659;-54
2020/12/14 12:11:36;;;;;;;6.20;5.00;;;13.10;66.90;;;;;;5011704;28;20975;-54
2020/12/14 12:14:03;;;;;;;6.07;5.20;;;13.10;67.10;;;;;;5011640;28;21161;-54
2020/12/14 12:16:31;;;;;;;5.37;4.97;;;13.00;67.30;;;;;;5011540;28;20676;-53
2020/12/14 12:18:59;;;;;;;7.93;5.67;;;13.10;67.70;;;;;;5011573;28;20639;-54
2020/12/14 12:21:26;;;;;;;5.73;4.20;;;13.10;68.30;;;;;;5011046;28;20635;-52
2020/12/14 12:23:53;;;;;;;5.63;5.13;;;13.20;68.20;;;;;;5011675;28;20632;-54
2020/12/14 12:26:20;;;;;;;6.07;5.47;;;13.20;67.50;;;;;;5013062;28;20612;-54
2020/12/14 12:28:47;;;;;;;6.03;5.43;;;13.30;67.30;;;;;;5011528;28;20774;-52
2020/12/14 12:31:14;;;;;;;5.80;4.90;;;13.30;66.70;;;;;;5011385;28;21237;-53
2020/12/14 12:33:41;;;;;;;5.90;5.20;;;13.30;66.30;;;;;;5012296;28;20634;-55
2020/12/14 12:36:09;;;;;;;5.60;4.33;;;13.30;66.30;;;;;;5013689;28;20822;-55
2020/12/14 12:38:35;;;;;;;5.00;4.60;;;13.30;66.60;;;;;;5013628;28;20698;-54
2020/12/14 12:41:02;;;;;;;5.77;5.03;;;13.30;66.60;;;;;;5012729;28;20662;-53
2020/12/14 12:43:29;;;;;;;7.73;5.53;;;13.40;66.60;;;;;;5010815;28;20685;-51
2020/12/14 12:45:57;;;;;;;6.33;5.73;;;13.30;66.90;;;;;;5010905;28;20631;-51
2020/12/14 12:48:24;;;;;;;6.00;5.40;;;13.40;67.10;;;;;;5010944;28;20730;-53
2020/12/14 12:50:54;;;;;;;5.67;5.10;;;13.40;67.00;;;;;;5011864;28;20618;-55
2020/12/14 12:53:22;;;;;;;6.13;5.33;;;13.40;67.00;;;;;;5012059;28;20631;-53